Time;durP1;ratioP1;P1;durP2;ratioP2;P2;SDS_P1;SDS_P2;PMS_P1;PMS_P2;Temp;Humidity;BMP_temperature;BMP_pressure;BME280_temperature;BME280_humidity;BME280_pressure;Samples;Min_cycle;Max_cycle;Signal;HPM_P1;HPM_P2
2021/09/11 00:02:13;;;;;;;20.17;18.02;;;12.20;99.90;;;;;;5008786;28;20045;-66
2021/09/11 00:04:45;;;;;;;20.20;18.02;;;12.20;99.90;;;;;;5010240;28;20048;-65
2021/09/11 00:07:13;;;;;;;19.58;17.50;;;12.20;99.90;;;;;;5010341;28;20053;-66
2021/09/11 00:09:40;;;;;;;22.25;19.42;;;12.20;99.90;;;;;;5010226;28;20427;-64
2021/09/11 00:12:08;;;;;;;20.63;18.60;;;12.10;99.90;;;;;;5008373;28;20046;-66
2021/09/11 00:14:36;;;;;;;19.23;17.27;;;12.10;99.90;;;;;;5010215;28;20042;-67
2021/09/11 00:17:03;;;;;;;19.55;17.63;;;12.10;99.90;;;;;;5010113;28;20081;-64
2021/09/11 00:19:30;;;;;;;21.58;19.02;;;12.10;99.90;;;;;;5010198;28;20402;-64
2021/09/11 00:21:57;;;;;;;22.92;20.52;;;12.10;99.90;;;;;;5008794;28;20081;-64
2021/09/11 00:24:23;;;;;;;21.20;19.08;;;12.10;99.90;;;;;;5010131;28;20490;-64
2021/09/11 00:26:50;;;;;;;21.42;19.13;;;12.10;99.90;;;;;;5009993;28;20601;-64
2021/09/11 00:29:17;;;;;;;20.65;18.58;;;12.10;99.90;;;;;;5010396;28;20046;-69
2021/09/11 00:31:44;;;;;;;23.08;19.77;;;12.10;99.90;;;;;;5010070;28;20046;-71
2021/09/11 00:34:11;;;;;;;20.80;17.30;;;12.10;99.90;;;;;;5008550;28;20041;-66
2021/09/11 00:36:38;;;;;;;21.08;18.98;;;12.00;99.90;;;;;;5008179;28;20543;-65
2021/09/11 00:39:05;;;;;;;20.98;18.83;;;12.00;99.90;;;;;;5009871;28;20096;-64
2021/09/11 00:41:32;;;;;;;21.60;19.33;;;12.00;99.90;;;;;;5010613;28;20065;-66
2021/09/11 00:43:59;;;;;;;23.52;21.02;;;12.00;99.90;;;;;;5012163;28;20053;-64
2021/09/11 00:46:26;;;;;;;22.15;19.98;;;12.00;99.90;;;;;;5013198;28;20045;-67
2021/09/11 00:48:53;;;;;;;23.30;20.35;;;12.00;99.90;;;;;;5013394;28;20116;-67
2021/09/11 00:51:20;;;;;;;24.92;22.35;;;12.00;99.90;;;;;;5012925;28;20125;-63
2021/09/11 00:53:47;;;;;;;21.95;18.65;;;12.00;99.90;;;;;;5013112;28;20522;-65
2021/09/11 00:56:14;;;;;;;20.55;18.55;;;12.00;99.90;;;;;;5011646;28;20480;-69
2021/09/11 00:58:42;;;;;;;22.08;19.77;;;12.00;99.90;;;;;;5013143;28;20077;-67
2021/09/11 01:01:09;;;;;;;23.77;21.23;;;12.00;99.90;;;;;;5013174;28;20437;-66
2021/09/11 01:03:36;;;;;;;25.35;22.65;;;12.00;99.90;;;;;;5023074;23;20439;-66
2021/09/11 01:06:04;;;;;;;22.90;20.50;;;12.00;99.90;;;;;;5028912;28;20132;-62
2021/09/11 01:08:31;;;;;;;22.70;20.10;;;12.00;99.90;;;;;;5031914;28;20045;-62
2021/09/11 01:10:58;;;;;;;24.13;21.77;;;12.00;99.90;;;;;;5032440;28;20488;-64
2021/09/11 01:13:25;;;;;;;24.02;21.58;;;12.00;99.90;;;;;;5032461;28;20053;-63
2021/09/11 01:15:57;;;;;;;26.25;23.63;;;12.00;99.90;;;;;;5030106;28;20076;-62
2021/09/11 01:18:24;;;;;;;23.33;20.83;;;12.00;99.90;;;;;;5032513;28;20049;-62
2021/09/11 01:20:51;;;;;;;24.95;22.45;;;12.00;99.90;;;;;;5032559;28;20463;-62
2021/09/11 01:23:19;;;;;;;25.45;22.42;;;12.00;99.90;;;;;;5032161;28;20045;-63
2021/09/11 01:25:46;;;;;;;25.55;22.95;;;12.00;99.90;;;;;;5032567;28;20080;-63
2021/09/11 01:28:14;;;;;;;26.17;23.35;;;12.00;99.90;;;;;;5030213;28;20145;-64
2021/09/11 01:30:41;;;;;;;26.33;23.65;;;12.00;99.90;;;;;;5031863;28;20049;-63
2021/09/11 01:33:08;;;;;;;25.33;22.70;;;11.90;99.90;;;;;;5032103;28;20041;-62
2021/09/11 01:35:35;;;;;;;26.35;23.65;;;11.90;99.90;;;;;;5032071;28;20056;-62
2021/09/11 01:38:02;;;;;;;26.13;23.42;;;11.90;99.90;;;;;;5030271;28;20483;-63
2021/09/11 01:40:29;;;;;;;27.38;24.45;;;11.90;99.90;;;;;;5031869;28;20037;-62
2021/09/11 01:42:56;;;;;;;26.55;23.95;;;11.90;99.90;;;;;;5031683;28;20125;-62
2021/09/11 01:45:23;;;;;;;26.88;24.20;;;11.90;99.90;;;;;;5031969;28;20076;-64
2021/09/11 01:47:51;;;;;;;23.98;21.52;;;11.90;99.90;;;;;;5031942;28;20451;-62
2021/09/11 01:50:20;;;;;;;24.55;22.10;;;11.90;99.90;;;;;;5030094;28;20403;-64
2021/09/11 01:52:48;;;;;;;25.02;22.45;;;11.90;99.90;;;;;;5031219;28;20077;-62
2021/09/11 01:55:16;;;;;;;25.92;23.20;;;11.90;99.90;;;;;;5032061;28;20103;-63
2021/09/11 01:57:45;;;;;;;28.55;22.75;;;11.90;99.90;;;;;;5031693;28;20049;-62
2021/09/11 02:00:16;;;;;;;27.20;23.35;;;11.90;99.90;;;;;;5029876;28;20049;-64
2021/09/11 02:02:44;;;;;;;27.90;24.35;;;11.90;99.90;;;;;;5031247;28;20049;-63
2021/09/11 02:05:13;;;;;;;23.98;21.25;;;11.90;99.90;;;;;;5031698;28;20156;-63
2021/09/11 02:07:40;;;;;;;23.42;20.98;;;11.90;99.90;;;;;;5031651;28;20431;-63
2021/09/11 02:10:09;;;;;;;24.67;22.13;;;11.90;99.90;;;;;;5029515;28;20119;-64
2021/09/11 02:12:36;;;;;;;24.05;21.52;;;11.90;99.90;;;;;;5031375;28;20092;-63
2021/09/11 02:15:05;;;;;;;26.60;21.77;;;11.90;99.90;;;;;;5031315;28;20387;-64
2021/09/11 02:17:31;;;;;;;26.52;23.63;;;11.90;99.90;;;;;;5031369;28;20052;-63
2021/09/11 02:19:58;;;;;;;29.20;24.80;;;11.90;99.90;;;;;;5029799;28;20193;-63
2021/09/11 02:22:25;;;;;;;27.65;24.75;;;11.90;99.90;;;;;;5030905;28;20089;-65
2021/09/11 02:24:52;;;;;;;29.25;25.85;;;11.90;99.90;;;;;;5031304;28;20519;-63
2021/09/11 02:27:19;;;;;;;30.45;26.80;;;11.90;99.90;;;;;;5031316;28;20049;-62
2021/09/11 02:29:46;;;;;;;26.52;23.77;;;11.90;99.90;;;;;;5030904;28;20057;-64
2021/09/11 02:32:13;;;;;;;26.00;23.20;;;12.00;99.90;;;;;;5029557;28;20053;-64
2021/09/11 02:34:40;;;;;;;27.08;24.25;;;12.00;99.90;;;;;;5031049;28;20049;-63
2021/09/11 02:37:09;;;;;;;27.67;24.80;;;12.00;99.90;;;;;;5031231;28;20080;-65
2021/09/11 02:39:37;;;;;;;30.92;27.27;;;12.00;99.90;;;;;;5031087;28;20459;-62
2021/09/11 02:42:05;;;;;;;26.60;23.25;;;12.00;99.90;;;;;;5029401;28;20448;-67
2021/09/11 02:44:32;;;;;;;25.48;21.88;;;12.10;99.90;;;;;;5030789;28;20113;-63
2021/09/11 02:46:59;;;;;;;27.23;24.30;;;12.10;99.90;;;;;;5030821;28;20103;-65
2021/09/11 02:49:26;;;;;;;31.13;25.75;;;12.10;99.90;;;;;;5030739;28;20061;-63
2021/09/11 02:51:53;;;;;;;28.08;24.40;;;12.10;99.90;;;;;;5028838;28;20050;-65
2021/09/11 02:54:21;;;;;;;25.95;22.10;;;12.10;99.90;;;;;;5030375;28;20067;-68
2021/09/11 02:56:48;;;;;;;27.33;24.40;;;12.10;99.90;;;;;;5030176;28;20432;-63
2021/09/11 02:59:15;;;;;;;25.95;23.15;;;12.10;99.90;;;;;;5030325;28;20076;-64
2021/09/11 03:01:41;;;;;;;24.92;21.83;;;12.20;99.90;;;;;;5030524;28;20073;-63
2021/09/11 03:04:09;;;;;;;25.85;23.10;;;12.10;99.90;;;;;;5028011;28;20077;-64
2021/09/11 03:06:35;;;;;;;27.48;23.08;;;12.10;99.90;;;;;;5030311;28;20053;-64
2021/09/11 03:09:02;;;;;;;22.83;20.42;;;12.10;99.90;;;;;;5030225;28;20045;-66
2021/09/11 03:11:29;;;;;;;24.75;21.40;;;12.10;99.90;;;;;;5030699;28;20483;-64
2021/09/11 03:13:56;;;;;;;25.67;21.73;;;12.10;99.90;;;;;;5028497;28;20049;-63
2021/09/11 03:16:23;;;;;;;23.05;20.65;;;12.10;99.90;;;;;;5031071;28;20069;-65
2021/09/11 03:18:50;;;;;;;31.33;20.75;;;12.10;99.90;;;;;;5030219;28;20049;-63
2021/09/11 03:21:17;;;;;;;24.48;21.67;;;12.10;99.90;;;;;;5029916;28;20065;-66
2021/09/11 03:23:44;;;;;;;25.40;22.40;;;12.10;99.90;;;;;;5030418;28;20077;-65
2021/09/11 03:26:10;;;;;;;25.25;22.50;;;12.10;99.90;;;;;;5028727;28;20099;-63
2021/09/11 03:28:37;;;;;;;24.20;21.63;;;12.10;99.90;;;;;;5030226;28;20045;-65
2021/09/11 03:31:04;;;;;;;22.35;19.83;;;12.10;99.90;;;;;;5030154;28;20125;-64
2021/09/11 03:33:31;;;;;;;23.20;20.70;;;12.10;99.90;;;;;;5030253;28;20411;-64
2021/09/11 03:35:58;;;;;;;28.80;22.13;;;12.10;99.90;;;;;;5028375;28;20125;-64
2021/09/11 03:38:25;;;;;;;23.63;21.27;;;12.10;99.90;;;;;;5030088;28;20045;-64
2021/09/11 03:40:52;;;;;;;26.10;22.42;;;12.10;99.90;;;;;;5012127;28;20452;-65
2021/09/11 03:43:19;;;;;;;25.52;22.33;;;12.10;99.90;;;;;;5030108;28;20049;-65
2021/09/11 03:45:46;;;;;;;28.35;23.48;;;12.10;99.90;;;;;;5030037;28;20073;-64
2021/09/11 03:48:13;;;;;;;23.88;21.45;;;12.20;99.90;;;;;;5028392;28;20061;-64
2021/09/11 03:50:40;;;;;;;22.33;19.92;;;12.20;99.90;;;;;;5029889;28;20091;-63
2021/09/11 03:53:07;;;;;;;24.42;21.83;;;12.10;99.90;;;;;;5030017;28;20097;-63
2021/09/11 03:55:34;;;;;;;23.52;20.98;;;12.20;99.90;;;;;;5012174;28;20107;-63
2021/09/11 03:58:01;;;;;;;24.98;22.48;;;12.20;99.90;;;;;;5028337;28;20099;-64
2021/09/11 04:00:27;;;;;;;26.35;23.58;;;12.20;99.90;;;;;;5029683;28;20076;-63
2021/09/11 04:02:54;;;;;;;31.17;24.65;;;12.10;99.90;;;;;;5029406;28;20069;-63
2021/09/11 04:05:23;;;;;;;22.25;19.77;;;12.10;99.90;;;;;;5029875;28;20056;-66
2021/09/11 04:07:49;;;;;;;23.77;21.20;;;12.10;99.90;;;;;;5029934;28;20050;-64
2021/09/11 04:10:16;;;;;;;23.65;21.13;;;12.20;99.90;;;;;;5027650;28;20349;-63
2021/09/11 04:12:43;;;;;;;23.52;19.42;;;12.20;99.90;;;;;;5029920;28;20137;-65
2021/09/11 04:15:10;;;;;;;23.10;20.55;;;12.20;99.90;;;;;;5030025;28;20092;-64
2021/09/11 04:17:37;;;;;;;26.05;23.40;;;12.20;99.90;;;;;;5033471;28;20052;-63
2021/09/11 04:20:05;;;;;;;25.58;22.75;;;12.30;99.90;;;;;;5031702;28;20073;-63
2021/09/11 04:22:32;;;;;;;26.58;21.55;;;12.30;99.90;;;;;;5033485;28;20132;-64
2021/09/11 04:24:59;;;;;;;23.73;21.48;;;12.30;99.90;;;;;;5033566;28;20096;-64
2021/09/11 04:27:26;;;;;;;27.60;22.60;;;12.40;99.90;;;;;;5033173;28;20053;-63
2021/09/11 04:29:53;;;;;;;26.88;23.90;;;12.40;99.90;;;;;;5031701;28;20103;-65
2021/09/11 04:32:20;;;;;;;25.58;22.98;;;12.40;99.90;;;;;;5033291;28;20120;-63
2021/09/11 04:34:47;;;;;;;28.38;23.63;;;12.50;99.90;;;;;;5033788;28;20046;-65
2021/09/11 04:37:14;;;;;;;27.48;23.02;;;12.50;99.90;;;;;;5033404;28;20128;-63
2021/09/11 04:39:41;;;;;;;25.02;22.40;;;12.60;99.90;;;;;;5033152;28;20160;-65
2021/09/11 04:42:07;;;;;;;26.35;23.58;;;12.60;99.90;;;;;;5031460;28;20049;-63
2021/09/11 04:44:34;;;;;;;28.80;25.33;;;12.60;99.90;;;;;;5032804;28;20125;-63
2021/09/11 04:47:01;;;;;;;25.42;22.75;;;12.60;99.90;;;;;;5032694;28;20053;-67
2021/09/11 04:49:28;;;;;;;25.70;23.00;;;12.60;99.90;;;;;;5032775;28;20050;-64
2021/09/11 04:51:55;;;;;;;29.88;25.23;;;12.70;99.90;;;;;;5031630;28;20435;-63
2021/09/11 04:54:22;;;;;;;24.48;21.77;;;12.70;99.90;;;;;;5032494;28;20073;-65
2021/09/11 04:56:49;;;;;;;28.23;24.80;;;12.70;99.90;;;;;;5032645;28;20046;-64
2021/09/11 04:59:16;;;;;;;26.38;21.55;;;12.70;99.90;;;;;;5032680;28;20122;-64
2021/09/11 05:01:42;;;;;;;28.60;25.73;;;12.70;99.90;;;;;;5032864;28;20072;-64
2021/09/11 05:04:10;;;;;;;24.20;21.60;;;12.80;99.90;;;;;;5031378;28;20057;-65
2021/09/11 05:06:37;;;;;;;28.23;25.25;;;12.80;99.90;;;;;;5032528;28;20049;-64
2021/09/11 05:09:04;;;;;;;27.20;23.80;;;12.90;99.90;;;;;;5032629;28;20072;-65
2021/09/11 05:11:30;;;;;;;25.15;22.50;;;12.90;99.90;;;;;;5032574;28;20045;-64
2021/09/11 05:13:57;;;;;;;25.50;22.80;;;13.00;99.90;;;;;;5031075;28;20049;-65
2021/09/11 05:16:24;;;;;;;26.30;23.38;;;13.00;99.90;;;;;;5032670;28;20452;-63
2021/09/11 05:18:51;;;;;;;26.13;23.42;;;13.10;99.90;;;;;;5032518;28;20056;-66
2021/09/11 05:21:18;;;;;;;23.45;20.27;;;13.20;99.90;;;;;;5032311;28;20050;-65
2021/09/11 05:23:45;;;;;;;24.50;22.00;;;13.30;99.90;;;;;;5032601;28;20053;-65
2021/09/11 05:26:12;;;;;;;26.35;23.48;;;13.40;99.90;;;;;;5030915;28;20179;-64
2021/09/11 05:28:39;;;;;;;24.33;21.83;;;13.50;99.90;;;;;;5031434;28;20442;-66
2021/09/11 05:31:06;;;;;;;25.83;20.10;;;13.60;99.90;;;;;;5032207;28;20576;-65
2021/09/11 05:33:33;;;;;;;24.13;21.08;;;13.60;99.90;;;;;;5032552;28;20049;-63
2021/09/11 05:36:00;;;;;;;24.55;21.98;;;13.80;99.90;;;;;;5030747;28;20071;-63
2021/09/11 05:38:26;;;;;;;25.20;22.52;;;13.90;99.90;;;;;;5031861;28;20486;-65
2021/09/11 05:40:53;;;;;;;24.02;21.60;;;14.00;99.90;;;;;;5032251;28;20515;-65
2021/09/11 05:43:20;;;;;;;27.98;21.25;;;14.10;99.90;;;;;;5032281;28;20132;-64
2021/09/11 05:45:47;;;;;;;21.92;19.63;;;14.10;99.90;;;;;;5032209;28;20123;-64
2021/09/11 05:48:14;;;;;;;21.75;19.23;;;14.20;99.90;;;;;;5030503;28;20049;-64
2021/09/11 05:50:41;;;;;;;22.58;20.35;;;14.30;99.90;;;;;;5031995;28;20046;-64
2021/09/11 05:53:08;;;;;;;23.58;20.08;;;14.40;99.90;;;;;;5031968;28;20054;-64
2021/09/11 05:55:35;;;;;;;22.08;19.77;;;14.50;99.90;;;;;;5031767;28;20521;-63
2021/09/11 05:58:02;;;;;;;21.35;19.00;;;14.60;99.90;;;;;;5030226;28;20499;-67
2021/09/11 06:00:29;;;;;;;22.75;20.52;;;14.80;99.90;;;;;;5031565;28;20099;-67
2021/09/11 06:02:57;;;;;;;20.98;18.88;;;14.90;99.90;;;;;;5031704;28;20086;-63
2021/09/11 06:05:25;;;;;;;21.98;19.88;;;14.90;99.90;;;;;;5032180;28;20524;-63
2021/09/11 06:07:51;;;;;;;21.52;19.33;;;15.00;99.90;;;;;;5030419;28;20045;-64
2021/09/11 06:10:18;;;;;;;21.38;19.25;;;15.00;99.90;;;;;;5031794;28;20045;-65
2021/09/11 06:12:45;;;;;;;20.58;18.55;;;15.10;99.90;;;;;;5031917;28;20068;-63
2021/09/11 06:15:13;;;;;;;25.65;20.48;;;15.20;99.90;;;;;;5031994;28;20046;-63
2021/09/11 06:17:40;;;;;;;23.35;20.75;;;15.20;99.90;;;;;;5031883;28;20103;-63
2021/09/11 06:20:09;;;;;;;21.73;19.52;;;15.20;99.90;;;;;;5030435;28;20054;-63
2021/09/11 06:22:36;;;;;;;23.63;19.83;;;15.30;99.90;;;;;;5031675;28;20127;-63
2021/09/11 06:25:04;;;;;;;21.35;19.23;;;15.40;99.90;;;;;;5032020;28;20123;-63
2021/09/11 06:27:31;;;;;;;22.80;20.48;;;15.50;99.90;;;;;;5032010;28;20080;-63
2021/09/11 06:29:58;;;;;;;21.77;19.55;;;15.60;99.90;;;;;;5030304;28;20511;-63
2021/09/11 06:32:25;;;;;;;21.30;19.10;;;15.70;99.90;;;;;;5031477;28;20510;-63
2021/09/11 06:34:52;;;;;;;19.17;17.17;;;15.80;99.90;;;;;;5031577;28;20080;-63
2021/09/11 06:37:19;;;;;;;19.50;17.60;;;15.90;99.90;;;;;;5031630;28;20050;-65
2021/09/11 06:39:46;;;;;;;18.15;16.27;;;16.10;99.90;;;;;;5031500;28;20073;-63
2021/09/11 06:42:14;;;;;;;20.45;18.20;;;16.20;99.90;;;;;;5030098;28;20041;-63
2021/09/11 06:44:41;;;;;;;18.38;16.60;;;16.40;99.90;;;;;;5031371;28;20439;-63
2021/09/11 06:47:08;;;;;;;16.58;14.88;;;16.60;99.90;;;;;;5031143;28;20054;-64
2021/09/11 06:49:35;;;;;;;18.00;16.05;;;16.70;99.90;;;;;;5031212;28;20052;-64
2021/09/11 06:52:02;;;;;;;17.20;15.43;;;16.80;99.90;;;;;;5029713;28;20095;-67
2021/09/11 06:54:29;;;;;;;15.40;13.70;;;17.00;99.90;;;;;;5031088;28;20131;-63
2021/09/11 06:56:56;;;;;;;17.00;14.93;;;17.10;99.90;;;;;;5030971;28;20064;-64
2021/09/11 06:59:23;;;;;;;17.15;15.23;;;17.30;99.90;;;;;;5030917;28;20049;-64
2021/09/11 07:01:50;;;;;;;17.67;14.38;;;17.40;99.90;;;;;;5031378;28;20136;-63
2021/09/11 07:04:17;;;;;;;18.38;13.15;;;17.60;99.90;;;;;;5029599;28;20049;-63
2021/09/11 07:06:44;;;;;;;15.63;13.25;;;17.70;99.90;;;;;;5030866;28;20049;-63
2021/09/11 07:09:11;;;;;;;14.02;11.88;;;17.80;99.90;;;;;;5030710;28;20045;-64
2021/09/11 07:11:38;;;;;;;15.35;13.85;;;17.80;99.90;;;;;;5030934;28;20050;-64
2021/09/11 07:14:05;;;;;;;15.02;13.50;;;17.90;99.90;;;;;;5029420;28;20467;-63
2021/09/11 07:16:32;;;;;;;14.57;13.07;;;18.00;99.90;;;;;;5030478;28;20045;-63
2021/09/11 07:18:59;;;;;;;13.50;12.10;;;18.00;99.90;;;;;;5030901;28;20069;-64
2021/09/11 07:21:26;;;;;;;12.77;11.57;;;18.10;99.90;;;;;;5030833;28;20081;-64
2021/09/11 07:23:53;;;;;;;13.20;11.80;;;18.20;99.90;;;;;;5029035;28;20069;-63
2021/09/11 07:26:20;;;;;;;11.80;10.63;;;18.20;99.90;;;;;;5030602;28;20395;-64
2021/09/11 07:28:48;;;;;;;12.35;9.75;;;18.30;99.90;;;;;;5030556;28;20388;-63
2021/09/11 07:31:16;;;;;;;11.88;10.48;;;18.30;99.90;;;;;;5030170;28;20045;-63
2021/09/11 07:33:43;;;;;;;11.20;9.65;;;18.50;99.90;;;;;;5030596;28;20475;-63
2021/09/11 07:36:10;;;;;;;11.43;10.25;;;18.60;99.90;;;;;;5028832;28;20539;-64
2021/09/11 07:38:37;;;;;;;12.43;11.20;;;18.70;99.90;;;;;;5030404;28;20077;-65
2021/09/11 07:41:04;;;;;;;10.75;9.50;;;18.90;99.90;;;;;;5030261;28;20069;-63
2021/09/11 07:43:32;;;;;;;12.30;9.48;;;19.00;99.90;;;;;;5030193;28;20056;-63
2021/09/11 07:45:59;;;;;;;10.23;9.23;;;19.00;99.90;;;;;;5028903;28;20049;-67
2021/09/11 07:48:26;;;;;;;16.75;9.45;;;19.00;99.90;;;;;;5030735;28;20072;-64
2021/09/11 07:50:53;;;;;;;11.35;10.15;;;19.10;99.90;;;;;;5029784;28;20050;-65
2021/09/11 07:53:20;;;;;;;11.52;10.32;;;19.20;99.90;;;;;;5034303;28;20049;-63
2021/09/11 07:55:47;;;;;;;10.07;9.07;;;19.30;99.90;;;;;;5034171;28;20045;-64
2021/09/11 07:58:14;;;;;;;10.75;9.70;;;19.40;99.90;;;;;;5032724;28;20049;-64
2021/09/11 08:00:41;;;;;;;10.20;9.20;;;19.50;99.90;;;;;;5034272;28;20181;-64
2021/09/11 08:03:08;;;;;;;10.05;9.05;;;19.70;99.90;;;;;;5033472;28;20079;-65
2021/09/11 08:05:37;;;;;;;15.82;10.38;;;19.90;99.90;;;;;;5034482;28;20412;-63
2021/09/11 08:08:04;;;;;;;11.80;9.00;;;20.10;99.90;;;;;;5032477;28;20084;-63
2021/09/11 08:10:32;;;;;;;10.68;8.93;;;20.30;99.90;;;;;;5033975;28;20049;-67
2021/09/11 08:12:59;;;;;;;10.07;8.85;;;20.40;99.90;;;;;;5034180;28;20056;-64
2021/09/11 08:15:26;;;;;;;10.27;9.35;;;20.60;99.90;;;;;;5033675;28;20076;-64
2021/09/11 08:17:53;;;;;;;12.15;9.18;;;20.70;99.90;;;;;;5032354;28;20053;-67
2021/09/11 08:20:20;;;;;;;9.13;8.27;;;20.90;99.90;;;;;;5033519;28;20103;-64
2021/09/11 08:22:47;;;;;;;9.25;8.18;;;21.00;99.90;;;;;;5033534;28;20053;-63
2021/09/11 08:25:14;;;;;;;8.77;7.90;;;21.10;99.90;;;;;;5033670;28;20483;-64
2021/09/11 08:27:41;;;;;;;8.93;8.00;;;21.10;99.90;;;;;;5033764;28;20049;-63
2021/09/11 08:30:09;;;;;;;12.57;7.53;;;21.10;99.90;;;;;;5032060;28;20421;-65
2021/09/11 08:32:38;;;;;;;7.57;6.85;;;21.30;99.90;;;;;;5033390;28;20045;-64
2021/09/11 08:35:08;;;;;;;7.90;7.03;;;21.30;99.90;;;;;;5033586;28;20460;-63
2021/09/11 08:37:36;;;;;;;7.72;7.03;;;21.30;99.90;;;;;;5033593;28;20045;-67
2021/09/11 08:40:03;;;;;;;8.70;7.82;;;21.30;99.90;;;;;;5031822;28;20046;-63
2021/09/11 08:42:30;;;;;;;7.85;7.15;;;21.30;99.90;;;;;;5033305;28;20069;-64
2021/09/11 08:44:57;;;;;;;7.35;6.50;;;21.30;99.90;;;;;;5032903;28;20131;-68
2021/09/11 08:47:24;;;;;;;8.13;7.30;;;21.20;99.90;;;;;;5032923;28;20438;-64
2021/09/11 08:49:52;;;;;;;7.05;6.30;;;21.30;99.90;;;;;;5032248;28;20435;-65
2021/09/11 08:52:19;;;;;;;7.18;6.47;;;21.30;99.90;;;;;;5032283;28;20045;-67
2021/09/11 08:54:46;;;;;;;7.97;6.53;;;21.30;99.90;;;;;;5033341;28;20111;-64
2021/09/11 08:57:34;;;;;;;7.97;7.18;;;21.30;99.90;;;;;;5033275;28;20424;-65
2021/09/11 09:00:03;;;;;;;7.95;7.18;;;21.40;99.90;;;;;;5031628;28;20391;-64
2021/09/11 09:02:30;;;;;;;10.32;6.47;;;21.40;99.90;;;;;;5031310;28;20045;-64
2021/09/11 09:05:00;;;;;;;7.75;6.95;;;21.50;99.90;;;;;;5032982;28;20364;-65
2021/09/11 09:07:38;;;;;;;8.15;7.35;;;21.60;99.90;;;;;;5032938;28;20056;-65
2021/09/11 09:10:05;;;;;;;7.45;6.40;;;21.60;99.90;;;;;;5031375;28;20475;-65
2021/09/11 09:12:34;;;;;;;7.43;6.72;;;21.60;99.90;;;;;;5032487;28;20048;-64
2021/09/11 09:15:07;;;;;;;6.78;6.07;;;21.60;99.90;;;;;;5032947;28;20072;-65
2021/09/11 09:18:03;;;;;;;9.43;8.10;;;21.60;99.90;;;;;;5033147;28;20427;-63
2021/09/11 09:20:30;;;;;;;7.40;5.38;;;21.60;99.90;;;;;;5022692;28;20065;-64
2021/09/11 09:23:00;;;;;;;7.10;6.00;;;21.60;99.90;;;;;;5032806;28;20046;-65
2021/09/11 09:25:35;;;;;;;7.93;7.13;;;21.60;99.90;;;;;;5033031;28;20422;-64
2021/09/11 09:28:14;;;;;;;6.90;6.22;;;21.70;99.90;;;;;;5031388;28;20077;-65
2021/09/11 09:30:43;;;;;;;5.18;4.70;;;21.70;99.90;;;;;;5032551;28;20533;-64
2021/09/11 09:33:22;;;;;;;8.27;6.20;;;21.80;99.90;;;;;;5033054;28;20045;-63
2021/09/11 09:35:50;;;;;;;6.40;5.70;;;21.90;99.90;;;;;;5032691;28;20049;-64
2021/09/11 09:38:17;;;;;;;9.88;6.03;;;21.90;99.90;;;;;;5031264;28;20045;-64
2021/09/11 09:40:50;;;;;;;10.35;6.00;;;22.00;99.90;;;;;;5032527;28;20050;-64
2021/09/11 09:43:30;;;;;;;6.72;6.10;;;22.10;99.90;;;;;;5032448;28;20470;-64
2021/09/11 09:46:08;;;;;;;;;;;22.20;99.90;;;;;;5031528;28;20057;-67
2021/09/11 09:48:36;;;;;;;6.32;5.72;;;22.30;99.90;;;;;;5032221;28;20373;-64
2021/09/11 09:51:07;;;;;;;6.38;5.78;;;22.40;99.90;;;;;;5032577;28;20545;-64
2021/09/11 09:53:36;;;;;;;5.72;5.13;;;22.50;99.90;;;;;;5032379;28;20041;-64
2021/09/11 09:56:03;;;;;;;7.78;5.90;;;22.60;99.90;;;;;;5030870;28;20069;-64
2021/09/11 09:58:31;;;;;;;6.97;6.35;;;22.70;99.90;;;;;;5031719;28;20535;-64
2021/09/11 10:00:58;;;;;;;6.05;5.45;;;22.80;99.90;;;;;;5031974;28;20356;-65
2021/09/11 10:03:26;;;;;;;5.90;5.40;;;22.80;99.90;;;;;;5031971;28;20081;-65
2021/09/11 10:06:16;;;;;;;6.32;5.72;;;22.70;99.90;;;;;;5030662;28;20140;-64
2021/09/11 10:08:48;;;;;;;5.75;5.25;;;22.70;99.90;;;;;;5031800;28;20069;-64
2021/09/11 10:11:15;;;;;;;7.30;5.85;;;22.70;99.90;;;;;;5031703;28;20095;-67
2021/09/11 10:13:59;;;;;;;7.18;5.97;;;22.80;99.90;;;;;;5031381;28;20076;-64
2021/09/11 10:16:32;;;;;;;8.25;7.22;;;22.80;99.90;;;;;;5030196;28;20045;-65
2021/09/11 10:19:00;;;;;;;6.70;6.10;;;22.90;99.90;;;;;;5031834;28;20053;-66
2021/09/11 10:21:35;;;;;;;7.85;7.15;;;23.00;99.90;;;;;;5031763;28;20084;-65
2021/09/11 10:24:02;;;;;;;6.13;5.53;;;23.30;99.90;;;;;;5029842;28;20073;-65
2021/09/11 10:26:52;;;;;;;8.23;7.05;;;23.40;99.90;;;;;;5030805;28;20041;-64
2021/09/11 10:29:51;;;;;;;6.82;6.13;;;23.50;99.90;;;;;;5031511;28;20092;-64
2021/09/11 10:32:38;;;;;;;6.07;5.47;;;23.50;99.90;;;;;;5029905;28;20064;-65
2021/09/11 10:35:22;;;;;;;7.07;6.22;;;23.50;99.90;;;;;;5031576;28;20141;-64
2021/09/11 10:37:52;;;;;;;7.43;6.65;;;23.70;99.90;;;;;;5031334;28;20471;-64
2021/09/11 10:40:37;;;;;;;5.63;5.22;;;23.80;99.90;;;;;;5029575;28;20080;-66
2021/09/11 10:43:10;;;;;;;7.43;6.72;;;23.70;99.90;;;;;;5031378;28;20046;-65
2021/09/11 10:45:58;;;;;;;8.15;6.03;;;23.70;99.90;;;;;;5031137;28;20080;-66
2021/09/11 10:48:31;;;;;;;6.13;5.63;;;23.70;99.90;;;;;;5029760;28;20207;-64
2021/09/11 10:51:28;;;;;;;7.47;5.53;;;23.80;99.90;;;;;;5031347;28;20099;-64
2021/09/11 10:54:04;;;;;;;9.27;5.50;;;23.80;99.90;;;;;;5029334;28;20061;-66
2021/09/11 10:57:01;;;;;;;5.97;5.13;;;23.80;99.90;;;;;;5030876;28;20041;-66
2021/09/11 10:59:33;;;;;;;6.15;5.47;;;23.70;99.90;;;;;;5030965;28;20077;-66
2021/09/11 11:02:25;;;;;;;6.35;5.75;;;23.80;99.90;;;;;;5029506;28;20392;-65
2021/09/11 11:04:57;;;;;;;5.18;4.68;;;23.90;99.90;;;;;;5030579;28;20050;-68
2021/09/11 11:07:30;;;;;;;6.88;6.18;;;24.00;99.90;;;;;;5030530;28;20472;-64
2021/09/11 11:10:09;;;;;;;6.88;5.35;;;24.00;99.90;;;;;;5029082;28;20054;-68
2021/09/11 11:12:41;;;;;;;5.80;5.30;;;24.00;99.90;;;;;;5030349;28;20073;-64
2021/09/11 11:15:10;;;;;;;5.43;4.93;;;24.00;99.90;;;;;;5030975;28;20053;-65
2021/09/11 11:17:41;;;;;;;7.87;5.90;;;24.00;99.90;;;;;;5030618;28;20523;-64
2021/09/11 11:20:09;;;;;;;6.47;5.88;;;24.00;99.90;;;;;;5028912;28;20049;-67
2021/09/11 11:22:39;;;;;;;6.30;5.55;;;24.00;99.90;;;;;;5030620;28;20067;-65
2021/09/11 11:25:12;;;;;;;8.95;6.47;;;24.00;99.90;;;;;;5029723;28;20050;-68
2021/09/11 11:27:40;;;;;;;7.43;6.82;;;24.00;99.90;;;;;;5030921;28;20099;-68
2021/09/11 11:30:11;;;;;;;10.88;6.90;;;24.00;99.90;;;;;;5028781;28;20671;-66
2021/09/11 11:32:39;;;;;;;9.40;7.20;;;24.00;99.90;;;;;;5030428;28;20060;-65
2021/09/11 11:35:07;;;;;;;6.65;6.05;;;24.00;99.90;;;;;;5030489;28;20493;-66
2021/09/11 11:37:37;;;;;;;11.80;6.63;;;24.10;99.90;;;;;;5030622;28;20060;-65
2021/09/11 11:40:14;;;;;;;7.90;7.13;;;24.10;99.90;;;;;;5029191;28;20077;-64
2021/09/11 11:42:43;;;;;;;7.80;7.03;;;24.00;99.90;;;;;;5030618;28;20042;-67
2021/09/11 11:45:12;;;;;;;9.68;6.30;;;24.00;99.90;;;;;;5030313;28;20046;-64
2021/09/11 11:47:45;;;;;;;7.50;6.70;;;24.00;99.90;;;;;;5030813;28;20073;-64
2021/09/11 11:50:16;;;;;;;13.75;6.88;;;23.90;99.90;;;;;;5028816;28;20073;-64
2021/09/11 11:52:44;;;;;;;6.20;5.63;;;23.90;99.90;;;;;;5030225;28;20096;-65
2021/09/11 11:55:12;;;;;;;7.38;6.68;;;24.00;99.90;;;;;;5030480;28;20076;-65
2021/09/11 11:57:39;;;;;;;8.13;7.45;;;24.10;99.90;;;;;;5030427;28;20115;-65
2021/09/11 12:00:09;;;;;;;9.30;6.97;;;24.00;99.90;;;;;;5028728;28;20076;-65
2021/09/11 12:02:38;;;;;;;7.93;7.13;;;24.00;99.90;;;;;;5030418;28;20115;-65
2021/09/11 12:05:24;;;;;;;7.28;6.45;;;24.20;99.90;;;;;;5029790;28;20046;-65
2021/09/11 12:08:02;;;;;;;6.78;6.10;;;24.20;99.90;;;;;;5029815;28;20068;-65
2021/09/11 12:10:32;;;;;;;9.27;6.32;;;24.10;99.90;;;;;;5028298;28;20538;-65
2021/09/11 12:13:10;;;;;;;15.63;8.20;;;24.10;99.90;;;;;;5030282;28;20042;-66
2021/09/11 12:15:38;;;;;;;11.50;10.30;;;24.20;99.90;;;;;;5030091;28;20095;-64
2021/09/11 12:18:16;;;;;;;15.85;9.50;;;23.80;99.90;;;;;;5028685;28;20063;-65
2021/09/11 12:20:52;;;;;;;12.30;9.70;;;23.70;99.90;;;;;;5029654;28;20045;-64
2021/09/11 12:23:28;;;;;;;18.90;9.25;;;23.50;99.90;;;;;;5029723;28;20449;-64
2021/09/11 12:26:06;;;;;;;9.73;8.82;;;23.40;99.90;;;;;;5028125;28;20099;-65
2021/09/11 12:28:38;;;;;;;11.93;9.45;;;23.30;99.90;;;;;;5029778;28;20392;-65
2021/09/11 12:31:21;;;;;;;8.75;7.95;;;23.40;99.90;;;;;;5029487;28;20083;-65
2021/09/11 12:33:58;;;;;;;11.88;10.60;;;23.50;99.90;;;;;;5029091;28;20073;-65
2021/09/11 12:36:43;;;;;;;11.15;9.40;;;23.70;99.90;;;;;;5028401;28;20068;-66
2021/09/11 12:39:15;;;;;;;11.07;9.13;;;23.90;99.90;;;;;;5033217;28;20111;-65
2021/09/11 12:41:45;;;;;;;9.88;8.93;;;24.00;99.90;;;;;;5032916;28;20057;-64
2021/09/11 12:44:12;;;;;;;9.27;6.67;;;24.10;99.90;;;;;;5031671;28;20551;-64